sensor_id;sensor_type;location;lat;lon;timestamp;temperature;humidity
18297;DHT22;18066;52.106;5.534;2024-01-30T06:32:26;9.10;99.90
18297;DHT22;18066;52.106;5.534;2024-01-30T06:36:00;9.10;99.90
18297;DHT22;18066;52.106;5.534;2024-01-30T06:39:25;9.20;99.90
18297;DHT22;18066;52.106;5.534;2024-01-30T06:47:21;9.00;99.90
18297;DHT22;18066;52.106;5.534;2024-01-30T06:52:34;9.30;99.90
18297;DHT22;18066;52.106;5.534;2024-01-30T06:55:25;9.50;99.90
18297;DHT22;18066;52.106;5.534;2024-01-30T06:58:24;9.60;99.90
18297;DHT22;18066;52.106;5.534;2024-01-30T07:00:51;9.10;99.90
18297;DHT22;18066;52.106;5.534;2024-01-30T07:03:21;9.50;99.90
18297;DHT22;18066;52.106;5.534;2024-01-30T07:05:50;9.20;99.90
18297;DHT22;18066;52.106;5.534;2024-01-30T07:08:19;9.40;99.90
18297;DHT22;18066;52.106;5.534;2024-01-30T07:10:56;9.50;99.90
18297;DHT22;18066;52.106;5.534;2024-01-30T07:14:02;9.30;99.90
18297;DHT22;18066;52.106;5.534;2024-01-30T07:16:49;9.50;99.90
18297;DHT22;18066;52.106;5.534;2024-01-30T07:19:28;9.40;99.90
18297;DHT22;18066;52.106;5.534;2024-01-30T07:22:22;9.40;99.90
18297;DHT22;18066;52.106;5.534;2024-01-30T08:33:16;9.90;99.90
18297;DHT22;18066;52.106;5.534;2024-01-30T08:36:42;10.10;99.90
18297;DHT22;18066;52.106;5.534;2024-01-30T08:46:43;10.30;99.90
18297;DHT22;18066;52.106;5.534;2024-01-30T09:25:27;10.90;99.90
18297;DHT22;18066;52.106;5.534;2024-01-30T09:28:37;10.60;99.90
18297;DHT22;18066;52.106;5.534;2024-01-30T09:31:22;11.00;99.90
18297;DHT22;18066;52.106;5.534;2024-01-30T09:34:14;11.30;99.90
18297;DHT22;18066;52.106;5.534;2024-01-30T09:38:14;11.60;99.90
18297;DHT22;18066;52.106;5.534;2024-01-30T09:40:14;11.10;99.90
18297;DHT22;18066;52.106;5.534;2024-01-30T09:48:52;11.30;99.90
18297;DHT22;18066;52.106;5.534;2024-01-30T09:51:26;11.00;99.90
18297;DHT22;18066;52.106;5.534;2024-01-30T09:54:26;11.30;99.90
18297;DHT22;18066;52.106;5.534;2024-01-30T09:57:00;11.10;99.90
18297;DHT22;18066;52.106;5.534;2024-01-30T09:59:30;11.20;99.90
18297;DHT22;18066;52.106;5.534;2024-01-30T10:02:07;11.50;99.90
18297;DHT22;18066;52.106;5.534;2024-01-30T10:04:36;11.10;99.90
18297;DHT22;18066;52.106;5.534;2024-01-30T10:07:05;11.20;99.90
18297;DHT22;18066;52.106;5.534;2024-01-30T10:09:33;11.20;99.90
18297;DHT22;18066;52.106;5.534;2024-01-30T10:12:01;11.30;99.90
18297;DHT22;18066;52.106;5.534;2024-01-30T10:14:29;11.30;99.90
18297;DHT22;18066;52.106;5.534;2024-01-30T10:16:57;11.40;99.90
18297;DHT22;18066;52.106;5.534;2024-01-30T10:19:24;11.60;99.90
18297;DHT22;18066;52.106;5.534;2024-01-30T10:21:51;11.30;99.90
18297;DHT22;18066;52.106;5.534;2024-01-30T10:24:24;11.40;99.90
18297;DHT22;18066;52.106;5.534;2024-01-30T10:26:51;11.60;99.90
18297;DHT22;18066;52.106;5.534;2024-01-30T10:29:18;11.10;99.90
18297;DHT22;18066;52.106;5.534;2024-01-30T10:31:57;11.30;99.90
18297;DHT22;18066;52.106;5.534;2024-01-30T10:34:23;11.40;99.90
18297;DHT22;18066;52.106;5.534;2024-01-30T10:36:56;11.80;99.90
18297;DHT22;18066;52.106;5.534;2024-01-30T10:39:29;11.60;99.90
18297;DHT22;18066;52.106;5.534;2024-01-30T10:42:03;11.70;99.90
18297;DHT22;18066;52.106;5.534;2024-01-30T10:44:36;11.80;99.90
18297;DHT22;18066;52.106;5.534;2024-01-30T10:47:06;11.80;99.90
18297;DHT22;18066;52.106;5.534;2024-01-30T10:49:35;11.80;99.90
18297;DHT22;18066;52.106;5.534;2024-01-30T10:52:05;11.70;99.90
18297;DHT22;18066;52.106;5.534;2024-01-30T10:54:34;12.10;99.90
18297;DHT22;18066;52.106;5.534;2024-01-30T10:57:10;11.70;99.90
18297;DHT22;18066;52.106;5.534;2024-01-30T11:00:16;11.90;99.90
18297;DHT22;18066;52.106;5.534;2024-01-30T11:03:19;11.70;99.90
18297;DHT22;18066;52.106;5.534;2024-01-30T11:06:19;11.70;99.90
18297;DHT22;18066;52.106;5.534;2024-01-30T11:09:02;11.30;99.90
18297;DHT22;18066;52.106;5.534;2024-01-30T11:11:50;11.60;99.90
18297;DHT22;18066;52.106;5.534;2024-01-30T11:14:23;11.50;99.90
18297;DHT22;18066;52.106;5.534;2024-01-30T11:16:50;11.70;99.90
18297;DHT22;18066;52.106;5.534;2024-01-30T11:19:22;11.50;99.90
18297;DHT22;18066;52.106;5.534;2024-01-30T11:21:50;11.70;99.90
18297;DHT22;18066;52.106;5.534;2024-01-30T11:24:19;11.70;99.90
18297;DHT22;18066;52.106;5.534;2024-01-30T11:26:55;11.80;99.90
18297;DHT22;18066;52.106;5.534;2024-01-30T11:29:43;11.80;99.90
18297;DHT22;18066;52.106;5.534;2024-01-30T16:36:46;8.40;99.90
18297;DHT22;18066;52.106;5.534;2024-01-30T16:39:38;8.40;99.90
18297;DHT22;18066;52.106;5.534;2024-01-30T16:42:22;8.50;99.90
18297;DHT22;18066;52.106;5.534;2024-01-30T16:44:59;8.40;99.90
18297;DHT22;18066;52.106;5.534;2024-01-30T16:47:44;8.40;99.90
18297;DHT22;18066;52.106;5.534;2024-01-30T16:50:54;8.40;99.90
18297;DHT22;18066;52.106;5.534;2024-01-30T16:59:56;8.60;99.90
18297;DHT22;18066;52.106;5.534;2024-01-30T17:02:49;8.50;99.90
18297;DHT22;18066;52.106;5.534;2024-01-30T17:05:36;8.30;99.90
18297;DHT22;18066;52.106;5.534;2024-01-30T17:17:57;8.30;99.90
18297;DHT22;18066;52.106;5.534;2024-01-30T17:20:28;8.70;99.90
18297;DHT22;18066;52.106;5.534;2024-01-30T17:23:22;8.30;99.90
18297;DHT22;18066;52.106;5.534;2024-01-30T17:26:36;8.40;99.90
18297;DHT22;18066;52.106;5.534;2024-01-30T17:29:21;8.40;99.90
18297;DHT22;18066;52.106;5.534;2024-01-30T17:32:00;8.40;99.90
18297;DHT22;18066;52.106;5.534;2024-01-30T17:35:07;8.40;99.90
18297;DHT22;18066;52.106;5.534;2024-01-30T17:37:48;8.60;99.90
18297;DHT22;18066;52.106;5.534;2024-01-30T17:40:26;8.50;99.90
18297;DHT22;18066;52.106;5.534;2024-01-30T17:43:06;8.50;99.90
18297;DHT22;18066;52.106;5.534;2024-01-30T17:45:49;8.50;99.90
18297;DHT22;18066;52.106;5.534;2024-01-30T17:49:04;8.50;99.90
18297;DHT22;18066;52.106;5.534;2024-01-30T17:55:07;8.60;99.90
18297;DHT22;18066;52.106;5.534;2024-01-30T17:57:46;8.70;99.90
18297;DHT22;18066;52.106;5.534;2024-01-30T18:00:29;8.60;99.90
